This is the latest recevied weather packets stored in our database for station/object JH1LWU-13. If no packets are shown the sender has not sent any weather packets the latest 10 day(s).
| Time | Temp. | Humidity | Pressure | Rain* | Wind** | Luminosity | Snow |
|---|---|---|---|---|---|---|---|
| 1787663692 | 32.22° C | 58% | 1007 hPa | - | - | - | - |
| 1787661891 | 27.78° C | 70% | 1007 hPa | - | - | - | - |
| 1787660090 | 27.78° C | 70% | 1006 hPa | - | - | - | - |
| 1787658289 | 27.78° C | 70% | 1007 hPa | - | - | - | - |
| 1787656488 | 27.78° C | 71% | 1007 hPa | - | - | - | - |
| 1787654687 | 27.78° C | 71% | 1006 hPa | - | - | - | - |
| 1787652886 | 27.78° C | 71% | 1006 hPa | - | - | - | - |
| 1787651085 | 28.33° C | 70% | 1005 hPa | - | - | - | - |
| 1787649284 | 28.33° C | 70% | 1005 hPa | - | - | - | - |
| 1787647483 | 28.89° C | 68% | 1006 hPa | - | - | - | - |
| 1787645682 | 29.44° C | 66% | 1005 hPa | - | - | - | - |
| 1787643881 | 30° C | 63% | 1007 hPa | - | - | - | - |
| 1787642080 | 30.56° C | 60% | 1005 hPa | - | - | - | - |
| 1787640279 | 31.11° C | 60% | 1007 hPa | - | - | - | - |
| 1787638478 | 31.67° C | 58% | 1007 hPa | - | - | - | - |
| 1787636677 | 32.22° C | 57% | 1006 hPa | - | - | - | - |
| 1787634876 | 32.22° C | 56% | 1007 hPa | - | - | - | - |
| 1787633075 | 33.33° C | 54% | 1008 hPa | - | - | - | - |
| 1787631274 | 33.89° C | 53% | 1005 hPa | - | - | - | - |
| 1787629473 | 33.33° C | 54% | 1009 hPa | - | - | - | - |
| 1787627672 | 34.44° C | 51% | 1008 hPa | - | - | - | - |
| 1787625871 | 34.44° C | 51% | 1008 hPa | - | - | - | - |
| 1787624070 | 33.89° C | 52% | 1009 hPa | - | - | - | - |
| 1787622269 | 33.89° C | 52% | 1008 hPa | - | - | - | - |
| 1787620468 | 33.33° C | 51% | 1009 hPa | - | - | - | - |
* Rain since midnight (hover to see other rain measurements)
** Current wind speed in m/s (hover to see current wind gust speed)